Latest Weather Observations for Esperance

IDW60801

Issued at 11:05 pm WST Friday 24 October 2014 (issued every 30 minutes, with the page automatically refreshed every 10 minutes)

About weather observations | Map of weather stations | Latest weather observations for WA | Other Formats
Station Details ID: 009789 Name: ESPERANCE Lat: -33.83 Lon: 121.89 Height: 25.0 m
Data from the previous 72 hours. | See also: Recent months at Esperance
Date/Time
WST
Temp
°C
App
Temp
°C
Dew
Point
Rel
Hum
%
Delta-T
°C
Wind Press
QNH
hPa
Press
MSL
hPa
Rain
since 9 am
mm
Dir
 
Spd
km/h
Gust
km/h
Spd
kts
Gust
kts
24/11:00pm 14.2 12.9 12.5 89 0.9 E 11 15 6 8 1015.8 1015.7 0.0
24/10:30pm 14.4 12.7 12.6 89 1.0 E 13 20 7 11 1016.3 1016.2 0.0
24/10:00pm 14.9 12.9 12.7 87 1.2 E 15 22 8 12 1016.5 1016.4 0.0
24/09:30pm 15.3 13.0 13.1 87 1.2 E 17 28 9 15 1016.6 1016.5 0.0
24/09:00pm 15.6 13.1 13.5 87 1.2 E 19 28 10 15 1016.9 1016.8 0.0
24/08:30pm 15.8 13.2 13.7 87 1.2 ESE 20 30 11 16 1017.1 1017.0 0.0
24/08:00pm 15.9 13.8 13.6 86 1.3 ESE 17 26 9 14 1017.2 1017.1 0.0
24/07:30pm 16.1 12.7 13.6 85 1.4 ESE 24 32 13 17 1016.9 1016.8 0.0
24/07:00pm 16.1 12.7 13.6 85 1.4 ESE 24 33 13 18 1016.7 1016.6 0.0
24/06:30pm 16.4 12.5 13.2 81 1.8 ESE 26 33 14 18 1016.7 1016.6 0.0
24/06:00pm 16.9 13.3 13.0 78 2.2 ESE 24 33 13 18 1016.7 1016.6 0.0
24/05:30pm 17.5 13.9 13.0 75 2.5 ESE 24 32 13 17 1016.3 1016.2 0.0
24/05:00pm 18.1 14.5 12.9 71 2.9 SE 24 33 13 18 1016.3 1016.2 0.0
24/04:30pm 18.7 15.2 13.4 71 3.0 SE 24 35 13 19 1016.2 1016.1 0.0
24/04:00pm 18.8 14.5 13.1 69 3.2 SE 28 35 15 19 1016.3 1016.2 0.0
24/03:30pm 18.2 13.8 13.0 71 2.9 SE 28 33 15 18 1016.4 1016.3 0.0
24/03:00pm 19.0 15.5 13.4 70 3.2 SE 24 33 13 18 1016.7 1016.6 0.0
24/02:30pm 18.5 14.6 13.4 72 2.9 SSE 26 32 14 17 1017.0 1016.9 0.0
24/02:00pm 18.9 15.7 13.2 69 3.2 SSE 22 30 12 16 1017.4 1017.3 0.0
24/01:30pm 18.9 15.3 13.0 68 3.3 SE 24 32 13 17 1017.5 1017.4 0.0
24/01:00pm 19.3 16.3 12.5 64 3.8 SE 20 28 11 15 1018.0 1017.9 0.0
24/12:30pm 19.1 16.6 12.3 64 3.8 SE 17 24 9 13 1018.4 1018.3 0.0
24/12:00pm 18.6 16.2 12.7 68 3.3 SE 17 22 9 12 1018.5 1018.4 0.0
24/11:30am 18.3 16.3 12.8 70 3.1 SE 15 20 8 11 1018.6 1018.5 0.0
24/11:00am 18.4 16.5 12.9 70 3.1 SE 15 19 8 10 1018.7 1018.6 0.0
24/10:30am 18.1 16.0 12.5 70 3.1 SE 15 20 8 11 1019.1 1019.0 0.0
24/10:00am 18.5 16.8 12.4 67 3.4 SE 13 17 7 9 1019.2 1019.1 0.0
24/09:30am 17.9 16.2 12.5 70 3.0 SE 13 19 7 10 1019.2 1019.1 0.0
24/09:00am 17.3 15.7 12.8 75 2.5 ESE 13 19 7 10 1019.2 1019.1 0.0
24/08:30am 16.3 14.7 12.9 80 1.9 SSE 13 22 7 12 1019.0 1018.9 0.0
24/08:02am 16.4 14.6 13.4 82 1.7 SSE 15 24 8 13 1018.9 1018.8 0.0
24/08:00am 16.5 14.8 13.7 83 1.6 SSE 15 22 8 12 1018.9 1018.8 0.0
24/07:30am 17.0 15.3 13.6 80 1.9 SSE 15 20 8 11 1018.7 1018.6 0.0
24/07:00am 16.8 15.1 13.6 81 1.8 SE 15 20 8 11 1018.6 1018.5 0.0
24/06:30am 16.8 15.5 13.6 81 1.8 SSE 13 17 7 9 1018.4 1018.3 0.0
24/06:00am 16.6 15.7 13.6 82 1.7 S 11 19 6 10 1018.3 1018.2 0.0
24/05:30am 16.4 15.1 13.7 84 1.5 S 13 20 7 11 1017.8 1017.7 0.0
24/05:00am 16.5 14.9 13.8 84 1.5 S 15 19 8 10 1017.7 1017.6 0.0
24/04:30am 16.6 15.5 13.0 79 2.0 S 11 15 6 8 1017.5 1017.4 0.0
24/04:00am 16.5 15.1 13.3 81 1.8 S 13 20 7 11 1017.3 1017.2 0.0
24/03:30am 16.5 15.2 13.8 84 1.5 S 13 20 7 11 1017.1 1017.0 0.0
24/03:00am 16.4 15.6 13.9 85 1.4 SSW 11 17 6 9 1017.0 1016.9 0.0
24/02:30am 16.5 15.8 14.2 86 1.3 SSW 11 20 6 11 1016.8 1016.7 0.0
24/02:00am 16.8 16.8 14.2 85 1.5 SW 7 13 4 7 1016.6 1016.5 0.0
24/01:30am 16.6 15.3 13.8 83 1.6 SSW 13 17 7 9 1016.6 1016.5 0.0
24/01:00am 16.8 16.0 14.0 83 1.6 SSW 11 17 6 9 1016.6 1016.5 0.0
24/12:30am 16.4 16.1 14.3 87 1.2 SSW 9 17 5 9 1016.6 1016.5 0.0
24/12:18am 16.7 16.5 14.8 88 1.1 SW 9 15 5 8 1016.6 1016.5 0.0
24/12:00am 16.8 15.9 14.9 88 1.1 SW 13 17 7 9 1016.7 1016.6 0.0
 
Date/Time
WST
Temp
°C
App
Temp
°C
Dew
Point
Rel
Hum
%
Delta-T
°C
Wind Press
QNH
hPa
Press
MSL
hPa
Rain
since 9 am
mm
Dir
 
Spd
km/h
Gust
km/h
Spd
kts
Gust
kts
23/11:46pm 16.5 16.4 14.9 90 0.9 SW 9 13 5 7 1016.6 1016.5 0.0
23/11:30pm 16.3 16.1 14.7 90 0.9 SW 9 15 5 8 1016.6 1016.5 0.0
23/11:00pm 16.5 15.6 14.9 90 0.9 SW 13 19 7 10 1016.7 1016.6 0.0
23/10:30pm 16.2 15.7 15.0 93 0.7 W 11 17 6 9 1016.6 1016.5 0.0
23/10:00pm 16.2 15.8 15.2 94 0.6 W 11 15 6 8 1016.6 1016.5 0.0
23/09:30pm 16.5 16.8 15.1 91 0.8 W 7 11 4 6 1016.5 1016.4 0.0
23/09:00pm 16.8 16.4 15.3 91 0.9 W 11 13 6 7 1016.5 1016.4 0.0
23/08:30pm 17.2 16.9 15.5 90 1.0 W 11 19 6 10 1016.0 1015.9 0.0
23/08:00pm 17.5 17.2 15.4 87 1.2 W 11 17 6 9 1015.8 1015.7 0.0
23/07:30pm 17.9 17.1 15.0 83 1.7 WSW 13 20 7 11 1015.2 1015.2 0.0
23/07:00pm 18.3 16.7 14.9 80 2.0 WSW 17 24 9 13 1014.7 1014.7 0.0
23/06:30pm 18.5 16.8 14.7 78 2.2 WSW 17 24 9 13 1014.1 1014.1 0.0
23/06:00pm 19.0 17.5 14.1 73 2.8 WSW 15 20 8 11 1013.4 1013.4 0.0
23/05:30pm 19.8 17.2 13.7 68 3.5 SW 20 35 11 19 1012.9 1012.9 0.0
23/05:00pm 21.5 18.9 11.9 54 5.4 SW 17 28 9 15 1012.3 1012.3 0.0
23/04:30pm 21.9 18.5 11.3 51 5.9 SW 20 35 11 19 1011.9 1011.9 0.0
23/04:00pm 22.8 19.4 11.4 48 6.4 SW 20 32 11 17 1011.5 1011.5 0.0
23/03:30pm 23.5 19.4 10.2 43 7.3 WSW 22 33 12 18 1011.1 1011.1 0.0
23/03:00pm 23.0 19.0 10.5 45 6.9 WSW 22 33 12 18 1011.1 1011.1 0.0
23/02:30pm 23.0 18.6 10.5 45 6.9 WSW 24 37 13 20 1010.9 1010.9 0.0
23/02:00pm 22.9 18.2 10.6 45 6.8 WSW 26 37 14 20 1010.9 1010.9 0.0
23/01:30pm 23.4 19.4 11.7 47 6.6 SW 24 35 13 19 1010.8 1010.8 0.0
23/01:00pm 22.9 19.3 11.9 50 6.2 WSW 22 33 12 18 1010.8 1010.8 0.0
23/12:30pm 23.0 20.4 12.1 50 6.2 SW 17 24 9 13 1010.8 1010.8 0.0
23/12:00pm 22.9 18.8 11.3 48 6.5 SW 24 35 13 19 1010.5 1010.5 0.0
23/11:30am 22.8 19.7 11.6 49 6.3 SW 19 28 10 15 1010.6 1010.6 0.0
23/11:00am 24.1 21.7 11.3 44 7.2 WSW 15 24 8 13 1010.6 1010.6 0.0
23/10:30am 24.9 20.1 10.3 39 8.1 WNW 26 39 14 21 1010.8 1010.8 0.0
23/10:00am 24.2 20.4 11.2 44 7.3 WNW 22 32 12 17 1011.1 1011.1 0.0
23/09:30am 23.2 18.9 10.8 45 6.9 WNW 24 37 13 20 1011.3 1011.3 0.0
23/09:00am 22.0 17.1 10.1 46 6.5 WNW 26 39 14 21 1011.5 1011.5 0.0
23/08:30am 20.6 17.0 12.9 61 4.4 WNW 24 35 13 19 1011.6 1011.6 0.0
23/08:00am 20.0 16.8 13.1 64 3.9 WNW 22 37 12 20 1011.5 1011.5 0.0
23/07:30am 19.1 15.8 14.1 73 2.9 WNW 24 37 13 20 1011.4 1011.4 0.0
23/07:00am 16.7 13.7 13.7 82 1.7 NW 22 32 12 17 1011.2 1011.2 0.0
23/06:30am 15.9 14.5 13.4 85 1.4 NW 13 20 7 11 1011.1 1011.1 0.0
23/06:00am 14.6 12.7 13.0 90 0.9 WNW 15 19 8 10 1011.2 1011.2 0.0
23/05:30am 14.1 13.0 13.0 93 0.6 NNW 11 15 6 8 1011.0 1011.0 0.0
23/05:00am 14.3 13.6 13.2 93 0.6 NE 9 13 5 7 1010.1 1010.1 0.0
23/04:30am 14.5 13.0 13.1 91 0.8 ENE 13 19 7 10 1010.0 1010.0 0.0
23/04:00am 14.7 13.3 13.3 91 0.8 E 13 22 7 12 1010.3 1010.3 0.0
23/03:30am 14.9 13.2 13.7 92 0.7 E 15 24 8 13 1010.7 1010.7 0.0
23/03:00am 15.6 14.5 14.4 93 0.7 E 13 19 7 10 1011.3 1011.3 0.0
23/02:30am 16.1 15.0 14.3 89 1.0 E 13 20 7 11 1011.7 1011.7 0.0
23/02:00am 16.4 14.8 13.9 85 1.4 ESE 15 22 8 12 1011.7 1011.7 0.0
23/01:30am 16.6 14.7 14.3 86 1.3 SE 17 24 9 13 1012.2 1012.2 0.0
23/01:00am 16.5 14.6 14.2 86 1.3 SE 17 24 9 13 1012.3 1012.3 0.0
23/12:30am 16.6 14.5 13.6 82 1.7 SE 17 20 9 11 1012.5 1012.5 0.0
23/12:00am 16.8 14.6 13.4 80 1.9 SE 17 26 9 14 1012.7 1012.7 0.0
 
Date/Time
WST
Temp
°C
App
Temp
°C
Dew
Point
Rel
Hum
%
Delta-T
°C
Wind Press
QNH
hPa
Press
MSL
hPa
Rain
since 9 am
mm
Dir
 
Spd
km/h
Gust
km/h
Spd
kts
Gust
kts
22/11:30pm 17.2 14.9 13.1 77 2.3 SSE 17 26 9 14 1012.7 1012.7 0.0
22/11:00pm 16.7 13.9 13.3 80 1.9 NE 20 37 11 20 1012.5 1012.5 0.0
22/10:30pm 16.6 13.4 13.2 80 1.9 NE 22 39 12 21 1011.4 1011.4 0.0
22/10:00pm 16.8 14.0 13.2 79 2.0 NE 20 32 11 17 1012.2 1012.2 0.0
22/09:30pm 17.1 14.6 13.6 80 2.0 ENE 19 33 10 18 1013.0 1013.0 0.0
22/09:00pm 17.2 15.5 13.7 80 2.0 E 15 22 8 12 1013.7 1013.7 0.0
22/08:30pm 17.7 16.1 13.8 78 2.2 ENE 15 24 8 13 1014.5 1014.5 0.0
22/08:00pm 18.5 16.0 14.0 75 2.6 ENE 20 30 11 16 1014.3 1014.3 0.0
22/07:30pm 19.5 16.9 13.7 69 3.3 ENE 20 35 11 19 1014.3 1014.3 0.0
22/07:00pm 20.3 17.7 13.9 66 3.7 ENE 20 28 11 15 1014.2 1014.2 0.0
22/06:30pm 19.4 17.2 15.0 75 2.6 E 20 30 11 16 1014.2 1014.2 0.0
22/06:00pm 19.5 17.4 15.3 76 2.5 ESE 20 28 11 15 1014.5 1014.5 0.0
22/05:30pm 20.1 18.1 15.5 75 2.7 ESE 20 26 11 14 1015.0 1015.0 0.0
22/05:00pm 20.4 18.0 15.5 73 2.9 ESE 22 32 12 17 1015.2 1015.2 0.0
22/04:30pm 20.6 17.8 15.4 72 3.1 ESE 24 32 13 17 1015.5 1015.4 0.0
22/04:00pm 21.3 19.3 15.6 70 3.4 ESE 20 30 11 16 1015.8 1015.7 0.0
22/03:30pm 21.6 18.9 15.6 68 3.6 SE 24 35 13 19 1016.0 1015.9 0.0
22/03:00pm 21.8 18.1 15.0 65 4.0 ESE 28 37 15 20 1016.6 1016.5 0.0
22/02:30pm 22.2 19.5 15.5 66 4.0 ESE 24 33 13 18 1017.1 1017.0 0.0
22/02:00pm 22.2 20.4 15.5 66 4.0 ESE 19 30 10 16 1017.6 1017.5 0.0
22/01:30pm 23.7 20.9 12.7 50 6.3 ENE 19 33 10 18 1018.3 1018.2 0.0
22/01:00pm 23.3 21.3 12.8 51 6.0 ENE 15 28 8 15 1019.7 1019.6 0.0
22/12:30pm 23.4 21.6 13.4 53 5.8 ENE 15 22 8 12 1020.3 1020.2 0.0
22/12:00pm 22.3 19.9 12.8 55 5.4 NE 17 32 9 17 1020.5 1020.4 0.0
22/11:30am 22.3 20.8 13.2 56 5.2 ENE 13 22 7 12 1020.9 1020.8 0.0
22/11:00am 21.4 19.5 13.0 58 4.8 ENE 15 22 8 12 1021.3 1021.2 0.0
22/10:30am 20.1 17.4 12.8 63 4.1 NNE 19 32 10 17 1021.7 1021.6 0.0
22/10:00am 19.2 16.8 12.8 66 3.6 E 17 24 9 13 1021.7 1021.6 0.0
22/09:30am 18.7 15.9 12.6 67 3.4 ENE 19 28 10 15 1022.5 1022.4 0.0
22/09:00am 17.4 14.8 13.1 76 2.4 NE 19 28 10 15 1023.0 1022.9 1.0
22/08:30am 17.0 16.0 13.4 79 2.0 NNE 11 17 6 9 1023.5 1023.4 -
22/08:00am 16.5 15.6 13.8 84 1.5 NE 11 19 6 10 1023.6 1023.5 -
22/07:30am 15.6 15.1 13.8 89 1.0 E 9 13 5 7 1023.6 1023.5 -
22/07:00am 14.1 12.3 13.2 94 0.5 NE 15 22 8 12 1023.7 1023.6 -
22/06:30am 13.0 11.0 12.6 97 0.2 NNE 15 22 8 12 1023.5 1023.4 -
22/06:00am 12.8 11.5 12.6 99 0.1 NNE 11 17 6 9 1023.2 1023.1 -
22/05:30am 12.5 11.1 12.3 99 0.1 NNE 11 15 6 8 1023.1 1023.0 -
22/05:00am 12.6 11.6 12.4 99 0.1 NNE 9 13 5 7 1023.1 1023.0 -
22/04:30am 12.5 11.5 12.3 99 0.1 NNE 9 13 5 7 1022.5 1022.4 -
22/04:00am 13.0 12.1 12.6 97 0.2 NE 9 11 5 6 1022.4 1022.3 -
22/03:30am 13.3 12.5 12.9 97 0.2 E 9 11 5 6 1022.4 1022.3 -
22/03:00am 13.6 12.9 13.1 97 0.3 ENE 9 11 5 6 1022.5 1022.4 0.0
22/02:30am 14.2 13.2 13.3 94 0.5 E 11 15 6 8 1022.5 1022.4 -
22/02:00am 13.4 12.2 12.7 95 0.4 E 11 15 6 8 1022.9 1022.8 -
22/01:30am 13.4 12.9 12.7 95 0.4 NE 7 9 4 5 1023.3 1023.2 -
22/01:00am 13.6 13.1 12.5 93 0.6 NE 7 9 4 5 1023.4 1023.3 -
22/12:30am 13.5 12.7 12.9 96 0.3 ENE 9 11 5 6 1023.5 1023.4 -
22/12:00am 14.0 13.7 13.3 96 0.4 NNE 7 9 4 5 1023.9 1023.8 -
 
Date/Time
WST
Temp
°C
App
Temp
°C
Dew
Point
Rel
Hum
%
Delta-T
°C
Wind Press
QNH
hPa
Press
MSL
hPa
Rain
since 9 am
mm
Dir
 
Spd
km/h
Gust
km/h
Spd
kts
Gust
kts
21/11:30pm 14.2 13.5 13.1 93 0.6 ENE 9 13 5 7 1023.9 1023.8 -

Other Formats:

Comma delimited format used in spreadsheet applications
http://www.bom.gov.au/fwo/IDW60801/IDW60801.94638.axf

JavaScript Object Notation format (JSON) in row-major order
http://www.bom.gov.au/fwo/IDW60801/IDW60801.94638.json